Flight Track Log - Related Links

Times and Time Zones

All times are in EDT time to prevent confusion due to time zone crossing. See the SWA3678 flight status page for this flight to view local times or setup timezone preferences in your user account.

Time Position Orientation Groundspeed Altitude Reporting Facility
EDT Latitude Longitude Course Direction KTS MPH feet Rate Location/Type
Sat 09:59:26 AM 35.8822 -78.7761 18° North 145 167 1,400  Level Washington Center
Sat 09:59:50 AM 35.9053 -78.7667 18° North 167 192 2,200 2,096 Climbing Washington Center
Sat 10:00:49 AM 35.9519 -78.7428 23° Northeast 201 231 4,300 2,450 Climbing Washington Center
Sat 10:01:50 AM 36.0156 -78.6992 29° Northeast 228 262 7,100 3,074 Climbing Washington Center
Sat 10:02:50 AM 36.0797 -78.6375 38° Northeast 260 299 10,500 3,150 Climbing Washington Center
Sat 10:03:50 AM 36.1311 -78.5828 41° Northeast 283 326 13,400 3,669 Climbing Washington Center
Sat 10:04:51 AM 36.1797 -78.4742 61° Northeast 305 351 17,900 3,769 Climbing Washington Center
Sat 10:05:51 AM 36.1950 -78.3667 80° East 305 351 21,000 2,571 Climbing Washington Center
Sat 10:06:50 AM 36.2142 -78.2514 78° East 317 365 23,000 1,008 Climbing Washington Center
Sat 10:07:50 AM 36.2983 -78.2233 15° North 263 303 23,000  Level Washington Center
Sat 10:08:50 AM 36.3867 -78.2881 329° Northwest 263 303 23,000  Level Washington Center
Sat 10:09:48 AM 36.4747 -78.3506 330° Northwest 313 360 23,000  Level Washington Center
Sat 10:10:50 AM 36.5631 -78.4133 330° Northwest 339 390 23,000  Level Washington Center
Sat 10:11:51 AM 36.6525 -78.4294 352° North 327 376 23,000  Level Washington Center
Sat 10:12:51 AM 36.7214 -78.3386 47° Northeast 286 329 23,000  Level Washington Center
Sat 10:13:50 AM 36.7900 -78.2503 46° Northeast 315 362 23,000 50 Level Washington Center
Sat 10:14:50 AM 36.8608 -78.1592 46° Northeast 334 384 23,100  Climbing Washington Center
Sat 10:15:51 AM 36.9361 -78.0606 46° Northeast 366 421 23,000 -51 Descending Washington Center
Sat 10:16:48 AM 37.0153 -77.9589 46° Northeast 390 449 23,000  Level Washington Center
Sat 10:17:50 AM 37.0944 -77.8547 46° Northeast 397 457 23,000  Level Washington Center
Sat 10:18:51 AM 37.1714 -77.7553 46° Northeast 397 457 23,000  Level Washington Center
Sat 10:19:51 AM 37.2544 -77.6506 45° Northeast 397 457 23,000  Level Washington Center
Sat 10:20:50 AM 37.3597 -77.6011 20° North 397 457 23,000  Level Washington Center
Sat 10:21:50 AM 37.4669 -77.5542 19° North 392 451 23,000  Level Washington Center
Sat 10:22:51 AM 37.5739 -77.5072 19° North 398 458 23,000  Level Washington Center
Sat 10:23:51 AM 37.6811 -77.4575 20° North 403 464 23,000  Level Washington Center
Sat 10:24:49 AM 37.7861 -77.4100 20° North 403 464 23,000  Level Washington Center
Sat 10:25:49 AM 37.8911 -77.3628 20° North 403 464 23,000  Level Washington Center
Sat 10:26:50 AM 37.9878 -77.3147 21° North 398 458 23,000 -850 Level Washington Center
Sat 10:27:49 AM 38.0758 -77.2825 16° North 378 435 21,300 -1,513 Descending Washington Center
Sat 10:28:49 AM 38.1703 -77.2397 20° North 365 420 20,000 -1,300 Descending Washington Center
Sat 10:29:49 AM 38.2753 -77.1892 21° North 365 420 18,700 1,475 Descending Washington Center
Sat 10:30:51 AM 38.3739 -77.1383 22° Northeast 360 414 23,000 -2,218 Climbing Washington Center
Sat 10:31:48 AM 38.4414 -77.0708 38° Northeast 360 414 14,300 -5,492 Descending Washington Center
Sat 10:32:49 AM 38.5050 -76.9897 45° Northeast 342 394 12,200 -1,140 Descending Washington Center
Sat 10:33:49 AM 38.5664 -76.9139 44° Northeast 319 367 12,000 -992 Descending Washington Center
Sat 10:34:50 AM 38.6339 -76.8328 43° Northeast 299 344 10,200 -1,180 Descending Washington Center
Sat 10:35:51 AM 38.6739 -76.7831 44° Northeast 282 325 9,600 -595 Descending Washington Center
Sat 10:36:51 AM 38.7228 -76.7067 51° Northeast 263 303 9,000 -1,015 Descending Washington Center
Sat 10:38:01 AM 38.7667 -76.6000 62° Northeast 248 285 7,400 -1,200 Descending Potomac TRACON
Sat 10:39:01 AM 38.8167 -76.5333 46° Northeast 254 292 6,400 -1,250 Descending Potomac TRACON
Sat 10:40:01 AM 38.8833 -76.5500 349° North 275 316 4,900 -1,200 Descending Potomac TRACON
Sat 10:41:01 AM 38.9500 -76.5833 339° North 266 306 4,000 -450 Descending Potomac TRACON
Sat 10:42:01 AM 39.0000 -76.6667 308° West 266 306 4,000 -100 Level Potomac TRACON
Sat 10:43:01 AM 39.0333 -76.7500 297° West 267 307 3,800 -632 Descending Potomac TRACON
Sat 10:43:55 AM 39.0667 -76.8167 303° West 270 311 2,800 -1,211 Descending Potomac TRACON
Sat 10:44:55 AM 39.1333 -76.8167 360° North 249 287 1,500 -667 Descending Potomac TRACON
Sat 10:46:01 AM 39.1833 -76.7667 38° Northeast 183 211 1,400 -429 Descending Potomac TRACON
Sat 10:47:01 AM 39.1833 -76.7167 90° East 125 144 600 -800 Descending Potomac TRACON
Sat 10:49:00 AM 39.1667 -76.6667 339° North  Level FlightAware Approximate
Sat 10:56:00 AM 39.1754 -76.6683 339° North  Level Estimated
Sat 10:57:00 AM 39.1754 -76.6683 339° North  Level Estimated

Login

Don't have an account? Register now (free) for customized features, flight alerts, and more!